sensor_id;sensor_type;location;lat;lon;timestamp;temperature;humidity
22071;DHT22;11200;51.488;6.668;2022-07-29T00:01:45;19.60;99.90
22071;DHT22;11200;51.488;6.668;2022-07-29T00:04:11;19.60;99.90
22071;DHT22;11200;51.488;6.668;2022-07-29T00:06:37;19.50;99.90
22071;DHT22;11200;51.488;6.668;2022-07-29T00:09:03;19.50;99.90
22071;DHT22;11200;51.488;6.668;2022-07-29T00:11:28;19.50;99.90
22071;DHT22;11200;51.488;6.668;2022-07-29T00:13:54;19.50;99.90
22071;DHT22;11200;51.488;6.668;2022-07-29T00:16:19;19.50;99.90
22071;DHT22;11200;51.488;6.668;2022-07-29T00:18:45;19.40;99.90
22071;DHT22;11200;51.488;6.668;2022-07-29T00:21:11;19.60;99.90
22071;DHT22;11200;51.488;6.668;2022-07-29T00:23:36;19.40;99.90
22071;DHT22;11200;51.488;6.668;2022-07-29T00:26:02;19.40;99.90
22071;DHT22;11200;51.488;6.668;2022-07-29T00:28:27;19.40;99.90
22071;DHT22;11200;51.488;6.668;2022-07-29T00:30:53;19.40;99.90
22071;DHT22;11200;51.488;6.668;2022-07-29T00:33:19;19.40;99.90
22071;DHT22;11200;51.488;6.668;2022-07-29T00:35:44;19.40;99.90
22071;DHT22;11200;51.488;6.668;2022-07-29T00:38:15;19.30;99.90
22071;DHT22;11200;51.488;6.668;2022-07-29T00:40:41;19.30;99.90
22071;DHT22;11200;51.488;6.668;2022-07-29T00:43:07;19.30;99.90
22071;DHT22;11200;51.488;6.668;2022-07-29T00:45:33;19.30;99.90
22071;DHT22;11200;51.488;6.668;2022-07-29T00:47:59;19.30;99.90
22071;DHT22;11200;51.488;6.668;2022-07-29T00:50:25;19.30;99.90
22071;DHT22;11200;51.488;6.668;2022-07-29T00:52:51;19.20;99.90
22071;DHT22;11200;51.488;6.668;2022-07-29T00:55:18;19.20;99.90
22071;DHT22;11200;51.488;6.668;2022-07-29T00:57:45;19.20;99.90
22071;DHT22;11200;51.488;6.668;2022-07-29T01:00:20;19.10;99.90
22071;DHT22;11200;51.488;6.668;2022-07-29T01:02:46;19.20;99.90
22071;DHT22;11200;51.488;6.668;2022-07-29T01:05:15;19.10;99.90
22071;DHT22;11200;51.488;6.668;2022-07-29T01:07:42;19.10;99.90
22071;DHT22;11200;51.488;6.668;2022-07-29T01:10:09;19.10;99.90
22071;DHT22;11200;51.488;6.668;2022-07-29T01:12:37;19.10;99.90
22071;DHT22;11200;51.488;6.668;2022-07-29T01:15:05;19.00;99.90
22071;DHT22;11200;51.488;6.668;2022-07-29T01:25:54;19.00;99.90
22071;DHT22;11200;51.488;6.668;2022-07-29T01:31:07;18.90;99.90
22071;DHT22;11200;51.488;6.668;2022-07-29T01:33:42;18.90;99.90
22071;DHT22;11200;51.488;6.668;2022-07-29T01:36:18;18.90;99.90
22071;DHT22;11200;51.488;6.668;2022-07-29T01:39:10;18.90;99.90
22071;DHT22;11200;51.488;6.668;2022-07-29T01:41:40;18.90;99.90
22071;DHT22;11200;51.488;6.668;2022-07-29T01:44:20;18.80;99.90
22071;DHT22;11200;51.488;6.668;2022-07-29T01:46:54;18.80;99.90
22071;DHT22;11200;51.488;6.668;2022-07-29T01:49:30;18.80;99.90
22071;DHT22;11200;51.488;6.668;2022-07-29T01:52:07;18.80;99.90
22071;DHT22;11200;51.488;6.668;2022-07-29T01:54:43;18.80;99.90
22071;DHT22;11200;51.488;6.668;2022-07-29T01:57:14;18.70;99.90
22071;DHT22;11200;51.488;6.668;2022-07-29T01:59:43;18.70;99.90
22071;DHT22;11200;51.488;6.668;2022-07-29T02:02:11;18.70;99.90
22071;DHT22;11200;51.488;6.668;2022-07-29T02:04:39;18.70;99.90
22071;DHT22;11200;51.488;6.668;2022-07-29T02:07:07;18.70;99.90
22071;DHT22;11200;51.488;6.668;2022-07-29T02:09:36;18.70;99.90
22071;DHT22;11200;51.488;6.668;2022-07-29T02:12:04;18.70;99.90
22071;DHT22;11200;51.488;6.668;2022-07-29T02:14:36;18.70;99.90
22071;DHT22;11200;51.488;6.668;2022-07-29T02:17:02;18.70;99.90
22071;DHT22;11200;51.488;6.668;2022-07-29T02:19:29;18.70;99.90
22071;DHT22;11200;51.488;6.668;2022-07-29T02:21:57;18.70;99.90
22071;DHT22;11200;51.488;6.668;2022-07-29T02:24:24;18.50;99.90
22071;DHT22;11200;51.488;6.668;2022-07-29T02:26:52;18.60;99.90
22071;DHT22;11200;51.488;6.668;2022-07-29T02:29:21;18.60;99.90
22071;DHT22;11200;51.488;6.668;2022-07-29T02:31:49;18.60;99.90
22071;DHT22;11200;51.488;6.668;2022-07-29T02:34:17;18.60;99.90
22071;DHT22;11200;51.488;6.668;2022-07-29T02:36:44;18.60;99.90
22071;DHT22;11200;51.488;6.668;2022-07-29T02:39:12;18.50;99.90
22071;DHT22;11200;51.488;6.668;2022-07-29T02:44:17;18.60;99.90
22071;DHT22;11200;51.488;6.668;2022-07-29T02:49:37;18.50;99.90
22071;DHT22;11200;51.488;6.668;2022-07-29T02:52:15;18.50;99.90
22071;DHT22;11200;51.488;6.668;2022-07-29T02:58:34;18.50;99.90
22071;DHT22;11200;51.488;6.668;2022-07-29T03:01:04;18.40;99.90
22071;DHT22;11200;51.488;6.668;2022-07-29T03:03:36;18.40;99.90
22071;DHT22;11200;51.488;6.668;2022-07-29T03:06:03;18.40;99.90
22071;DHT22;11200;51.488;6.668;2022-07-29T03:08:30;18.40;99.90
22071;DHT22;11200;51.488;6.668;2022-07-29T03:10:57;18.30;99.90
22071;DHT22;11200;51.488;6.668;2022-07-29T03:13:23;18.30;99.90
22071;DHT22;11200;51.488;6.668;2022-07-29T03:15:50;18.30;99.90
22071;DHT22;11200;51.488;6.668;2022-07-29T03:18:16;18.30;99.90
22071;DHT22;11200;51.488;6.668;2022-07-29T03:20:42;18.20;99.90
22071;DHT22;11200;51.488;6.668;2022-07-29T03:23:10;18.20;99.90
22071;DHT22;11200;51.488;6.668;2022-07-29T03:25:36;18.20;99.90
22071;DHT22;11200;51.488;6.668;2022-07-29T03:28:02;18.10;99.90
22071;DHT22;11200;51.488;6.668;2022-07-29T03:30:27;18.10;99.90
22071;DHT22;11200;51.488;6.668;2022-07-29T03:32:56;18.00;99.90
22071;DHT22;11200;51.488;6.668;2022-07-29T03:35:21;18.00;99.90
22071;DHT22;11200;51.488;6.668;2022-07-29T03:37:48;18.00;99.90
22071;DHT22;11200;51.488;6.668;2022-07-29T03:40:19;17.90;99.90
22071;DHT22;11200;51.488;6.668;2022-07-29T03:42:47;17.90;99.90
22071;DHT22;11200;51.488;6.668;2022-07-29T03:45:17;17.90;99.90
22071;DHT22;11200;51.488;6.668;2022-07-29T03:47:47;17.80;99.90
22071;DHT22;11200;51.488;6.668;2022-07-29T03:50:15;17.80;99.90
22071;DHT22;11200;51.488;6.668;2022-07-29T03:52:41;17.80;99.90
22071;DHT22;11200;51.488;6.668;2022-07-29T03:55:08;17.80;99.90
22071;DHT22;11200;51.488;6.668;2022-07-29T03:57:35;17.70;99.90
22071;DHT22;11200;51.488;6.668;2022-07-29T04:00:01;17.70;99.90
22071;DHT22;11200;51.488;6.668;2022-07-29T04:02:28;17.70;99.90
22071;DHT22;11200;51.488;6.668;2022-07-29T04:04:54;17.70;99.90
22071;DHT22;11200;51.488;6.668;2022-07-29T04:07:22;17.70;99.90
22071;DHT22;11200;51.488;6.668;2022-07-29T04:09:48;17.70;99.90
22071;DHT22;11200;51.488;6.668;2022-07-29T04:12:14;17.60;99.90
22071;DHT22;11200;51.488;6.668;2022-07-29T04:14:39;17.60;99.90
22071;DHT22;11200;51.488;6.668;2022-07-29T04:17:05;17.70;99.90
22071;DHT22;11200;51.488;6.668;2022-07-29T04:19:31;17.60;99.90
22071;DHT22;11200;51.488;6.668;2022-07-29T04:21:58;17.60;99.90
22071;DHT22;11200;51.488;6.668;2022-07-29T04:24:25;17.60;99.90
22071;DHT22;11200;51.488;6.668;2022-07-29T04:26:50;17.60;99.90
22071;DHT22;11200;51.488;6.668;2022-07-29T04:29:16;17.60;99.90
22071;DHT22;11200;51.488;6.668;2022-07-29T04:31:43;17.50;99.90
22071;DHT22;11200;51.488;6.668;2022-07-29T04:34:09;17.50;99.90
22071;DHT22;11200;51.488;6.668;2022-07-29T04:36:34;17.50;99.90
22071;DHT22;11200;51.488;6.668;2022-07-29T04:39:00;17.50;99.90
22071;DHT22;11200;51.488;6.668;2022-07-29T04:41:30;17.50;99.90
22071;DHT22;11200;51.488;6.668;2022-07-29T04:43:56;17.40;99.90
22071;DHT22;11200;51.488;6.668;2022-07-29T04:46:22;17.40;99.90
22071;DHT22;11200;51.488;6.668;2022-07-29T04:48:48;17.40;99.90
22071;DHT22;11200;51.488;6.668;2022-07-29T04:51:17;17.40;99.90
22071;DHT22;11200;51.488;6.668;2022-07-29T04:53:42;17.30;99.90
22071;DHT22;11200;51.488;6.668;2022-07-29T04:56:08;17.30;99.90
22071;DHT22;11200;51.488;6.668;2022-07-29T04:58:35;17.30;99.90
22071;DHT22;11200;51.488;6.668;2022-07-29T05:01:00;17.30;99.90
22071;DHT22;11200;51.488;6.668;2022-07-29T05:03:26;17.30;99.90
22071;DHT22;11200;51.488;6.668;2022-07-29T05:05:52;17.20;99.90
22071;DHT22;11200;51.488;6.668;2022-07-29T05:08:17;17.20;99.90
22071;DHT22;11200;51.488;6.668;2022-07-29T05:10:43;17.20;99.90
22071;DHT22;11200;51.488;6.668;2022-07-29T05:13:09;17.20;99.90
22071;DHT22;11200;51.488;6.668;2022-07-29T05:15:37;17.10;99.90
22071;DHT22;11200;51.488;6.668;2022-07-29T05:18:03;17.10;99.90
22071;DHT22;11200;51.488;6.668;2022-07-29T05:20:32;17.10;99.90
22071;DHT22;11200;51.488;6.668;2022-07-29T05:23:00;17.10;99.90
22071;DHT22;11200;51.488;6.668;2022-07-29T05:25:27;17.10;99.90
22071;DHT22;11200;51.488;6.668;2022-07-29T05:27:53;17.10;99.90
22071;DHT22;11200;51.488;6.668;2022-07-29T05:30:19;17.00;99.90
22071;DHT22;11200;51.488;6.668;2022-07-29T05:32:44;17.00;99.90
22071;DHT22;11200;51.488;6.668;2022-07-29T05:35:11;17.00;99.90
22071;DHT22;11200;51.488;6.668;2022-07-29T05:37:37;17.00;99.90
22071;DHT22;11200;51.488;6.668;2022-07-29T05:40:04;17.00;99.90
22071;DHT22;11200;51.488;6.668;2022-07-29T05:42:29;17.00;99.90
22071;DHT22;11200;51.488;6.668;2022-07-29T05:44:55;17.50;99.90
22071;DHT22;11200;51.488;6.668;2022-07-29T05:47:22;17.00;99.90
22071;DHT22;11200;51.488;6.668;2022-07-29T05:49:50;17.00;99.90
22071;DHT22;11200;51.488;6.668;2022-07-29T05:52:16;16.90;99.90
22071;DHT22;11200;51.488;6.668;2022-07-29T05:54:42;17.10;99.90
22071;DHT22;11200;51.488;6.668;2022-07-29T05:57:08;16.90;99.90
22071;DHT22;11200;51.488;6.668;2022-07-29T05:59:37;16.90;99.90
22071;DHT22;11200;51.488;6.668;2022-07-29T06:02:03;17.70;99.90
22071;DHT22;11200;51.488;6.668;2022-07-29T06:04:31;16.90;99.90
22071;DHT22;11200;51.488;6.668;2022-07-29T06:06:56;16.90;99.90
22071;DHT22;11200;51.488;6.668;2022-07-29T06:09:22;17.10;99.90
22071;DHT22;11200;51.488;6.668;2022-07-29T06:11:48;16.80;99.90
22071;DHT22;11200;51.488;6.668;2022-07-29T06:14:14;16.80;99.90
22071;DHT22;11200;51.488;6.668;2022-07-29T06:16:39;16.80;99.90
22071;DHT22;11200;51.488;6.668;2022-07-29T06:19:05;16.80;99.90
22071;DHT22;11200;51.488;6.668;2022-07-29T06:21:31;16.90;99.90
22071;DHT22;11200;51.488;6.668;2022-07-29T06:23:56;16.80;99.90
22071;DHT22;11200;51.488;6.668;2022-07-29T06:26:22;16.90;99.90
22071;DHT22;11200;51.488;6.668;2022-07-29T06:28:48;16.80;99.90
22071;DHT22;11200;51.488;6.668;2022-07-29T06:31:14;16.80;99.90
22071;DHT22;11200;51.488;6.668;2022-07-29T06:33:39;16.80;99.90
22071;DHT22;11200;51.488;6.668;2022-07-29T06:36:05;16.80;99.90
22071;DHT22;11200;51.488;6.668;2022-07-29T06:38:32;16.90;99.90
22071;DHT22;11200;51.488;6.668;2022-07-29T06:40:57;16.90;99.90
22071;DHT22;11200;51.488;6.668;2022-07-29T06:43:34;16.90;99.90
22071;DHT22;11200;51.488;6.668;2022-07-29T06:46:05;16.90;99.90
22071;DHT22;11200;51.488;6.668;2022-07-29T06:48:31;17.10;99.90
22071;DHT22;11200;51.488;6.668;2022-07-29T06:50:57;16.90;99.90
22071;DHT22;11200;51.488;6.668;2022-07-29T06:53:25;16.90;99.90
22071;DHT22;11200;51.488;6.668;2022-07-29T06:55:51;16.90;99.90
22071;DHT22;11200;51.488;6.668;2022-07-29T06:58:16;16.90;99.90
22071;DHT22;11200;51.488;6.668;2022-07-29T07:00:44;17.20;99.90
22071;DHT22;11200;51.488;6.668;2022-07-29T07:03:10;16.90;99.90
22071;DHT22;11200;51.488;6.668;2022-07-29T07:05:36;16.90;99.90
22071;DHT22;11200;51.488;6.668;2022-07-29T07:08:02;16.90;99.90
22071;DHT22;11200;51.488;6.668;2022-07-29T07:10:31;16.90;99.90
22071;DHT22;11200;51.488;6.668;2022-07-29T07:12:57;16.90;99.90
22071;DHT22;11200;51.488;6.668;2022-07-29T07:15:23;16.90;99.90
22071;DHT22;11200;51.488;6.668;2022-07-29T07:17:49;17.00;99.90
22071;DHT22;11200;51.488;6.668;2022-07-29T07:20:16;16.90;99.90
22071;DHT22;11200;51.488;6.668;2022-07-29T07:22:41;16.90;99.90
22071;DHT22;11200;51.488;6.668;2022-07-29T07:25:07;17.00;99.90
22071;DHT22;11200;51.488;6.668;2022-07-29T07:27:34;16.90;99.90
22071;DHT22;11200;51.488;6.668;2022-07-29T07:30:00;16.90;99.90
22071;DHT22;11200;51.488;6.668;2022-07-29T07:32:26;16.90;99.90
22071;DHT22;11200;51.488;6.668;2022-07-29T07:34:51;16.90;99.90
22071;DHT22;11200;51.488;6.668;2022-07-29T07:37:17;16.90;99.90
22071;DHT22;11200;51.488;6.668;2022-07-29T07:39:46;16.90;99.90
22071;DHT22;11200;51.488;6.668;2022-07-29T07:42:11;16.90;99.90
22071;DHT22;11200;51.488;6.668;2022-07-29T07:44:39;16.90;99.90
22071;DHT22;11200;51.488;6.668;2022-07-29T07:47:05;16.90;99.90
22071;DHT22;11200;51.488;6.668;2022-07-29T07:49:30;16.90;99.90
22071;DHT22;11200;51.488;6.668;2022-07-29T07:51:56;16.90;99.90
22071;DHT22;11200;51.488;6.668;2022-07-29T07:54:22;17.00;99.90
22071;DHT22;11200;51.488;6.668;2022-07-29T07:56:50;17.00;99.90
22071;DHT22;11200;51.488;6.668;2022-07-29T07:59:16;17.10;99.90
22071;DHT22;11200;51.488;6.668;2022-07-29T08:01:42;16.80;99.90
22071;DHT22;11200;51.488;6.668;2022-07-29T08:04:08;17.00;99.90
22071;DHT22;11200;51.488;6.668;2022-07-29T08:06:34;17.10;99.90
22071;DHT22;11200;51.488;6.668;2022-07-29T08:09:01;17.10;99.90
22071;DHT22;11200;51.488;6.668;2022-07-29T08:11:27;17.00;99.90
22071;DHT22;11200;51.488;6.668;2022-07-29T08:13:54;17.10;99.90
22071;DHT22;11200;51.488;6.668;2022-07-29T08:16:19;17.10;99.90
22071;DHT22;11200;51.488;6.668;2022-07-29T08:18:45;17.10;99.90
22071;DHT22;11200;51.488;6.668;2022-07-29T08:21:12;17.10;99.90
22071;DHT22;11200;51.488;6.668;2022-07-29T08:23:38;17.10;99.90
22071;DHT22;11200;51.488;6.668;2022-07-29T08:26:08;17.10;99.90
22071;DHT22;11200;51.488;6.668;2022-07-29T08:28:40;17.20;99.90
22071;DHT22;11200;51.488;6.668;2022-07-29T08:31:06;17.20;99.90
22071;DHT22;11200;51.488;6.668;2022-07-29T08:33:32;17.20;99.90
22071;DHT22;11200;51.488;6.668;2022-07-29T08:35:58;17.10;99.90
22071;DHT22;11200;51.488;6.668;2022-07-29T08:38:23;17.20;99.90
22071;DHT22;11200;51.488;6.668;2022-07-29T08:40:52;17.20;99.90
22071;DHT22;11200;51.488;6.668;2022-07-29T08:43:18;17.20;99.90
22071;DHT22;11200;51.488;6.668;2022-07-29T08:45:49;17.20;99.90
22071;DHT22;11200;51.488;6.668;2022-07-29T08:48:17;17.20;99.90
22071;DHT22;11200;51.488;6.668;2022-07-29T08:50:44;17.20;99.90
22071;DHT22;11200;51.488;6.668;2022-07-29T08:53:16;17.70;99.90
22071;DHT22;11200;51.488;6.668;2022-07-29T08:55:47;17.20;99.90
22071;DHT22;11200;51.488;6.668;2022-07-29T08:58:13;17.20;99.90
22071;DHT22;11200;51.488;6.668;2022-07-29T09:00:45;17.30;99.90
22071;DHT22;11200;51.488;6.668;2022-07-29T09:03:15;17.70;99.90
22071;DHT22;11200;51.488;6.668;2022-07-29T09:05:44;17.30;99.90
22071;DHT22;11200;51.488;6.668;2022-07-29T09:08:11;17.30;99.90
22071;DHT22;11200;51.488;6.668;2022-07-29T09:10:37;17.30;99.90
22071;DHT22;11200;51.488;6.668;2022-07-29T09:13:03;17.40;99.90
22071;DHT22;11200;51.488;6.668;2022-07-29T09:15:28;17.40;99.90
22071;DHT22;11200;51.488;6.668;2022-07-29T09:17:54;17.50;99.90
22071;DHT22;11200;51.488;6.668;2022-07-29T09:20:22;17.60;99.90
22071;DHT22;11200;51.488;6.668;2022-07-29T09:22:49;17.60;99.90
22071;DHT22;11200;51.488;6.668;2022-07-29T09:25:35;17.60;99.90
22071;DHT22;11200;51.488;6.668;2022-07-29T09:28:12;17.80;99.90
22071;DHT22;11200;51.488;6.668;2022-07-29T09:31:04;17.90;99.90
22071;DHT22;11200;51.488;6.668;2022-07-29T09:33:34;17.90;99.90
22071;DHT22;11200;51.488;6.668;2022-07-29T09:36:06;18.00;99.90
22071;DHT22;11200;51.488;6.668;2022-07-29T09:38:32;18.10;99.90
22071;DHT22;11200;51.488;6.668;2022-07-29T09:41:00;18.10;99.90
22071;DHT22;11200;51.488;6.668;2022-07-29T09:43:26;18.20;99.90
22071;DHT22;11200;51.488;6.668;2022-07-29T09:45:52;18.20;99.90
22071;DHT22;11200;51.488;6.668;2022-07-29T09:48:20;18.30;99.90
22071;DHT22;11200;51.488;6.668;2022-07-29T09:50:46;18.40;99.90
22071;DHT22;11200;51.488;6.668;2022-07-29T09:53:34;18.40;99.90
22071;DHT22;11200;51.488;6.668;2022-07-29T09:56:00;18.50;99.90
22071;DHT22;11200;51.488;6.668;2022-07-29T09:58:25;18.60;99.90
22071;DHT22;11200;51.488;6.668;2022-07-29T10:00:53;18.60;99.90
22071;DHT22;11200;51.488;6.668;2022-07-29T10:03:20;18.60;99.90
22071;DHT22;11200;51.488;6.668;2022-07-29T10:05:46;18.70;99.90
22071;DHT22;11200;51.488;6.668;2022-07-29T10:08:28;18.80;99.90
22071;DHT22;11200;51.488;6.668;2022-07-29T10:11:10;18.80;99.90
22071;DHT22;11200;51.488;6.668;2022-07-29T10:13:36;19.10;99.90
22071;DHT22;11200;51.488;6.668;2022-07-29T10:16:02;18.90;99.90
22071;DHT22;11200;51.488;6.668;2022-07-29T10:18:28;18.90;99.90
22071;DHT22;11200;51.488;6.668;2022-07-29T10:20:54;19.00;99.90
22071;DHT22;11200;51.488;6.668;2022-07-29T10:23:21;19.00;99.90
22071;DHT22;11200;51.488;6.668;2022-07-29T10:25:47;19.00;99.90
22071;DHT22;11200;51.488;6.668;2022-07-29T10:28:13;19.10;99.90
22071;DHT22;11200;51.488;6.668;2022-07-29T10:30:39;19.10;99.90
22071;DHT22;11200;51.488;6.668;2022-07-29T10:33:17;19.20;99.90
22071;DHT22;11200;51.488;6.668;2022-07-29T10:41:36;19.10;99.90
22071;DHT22;11200;51.488;6.668;2022-07-29T10:44:06;19.20;99.90
22071;DHT22;11200;51.488;6.668;2022-07-29T10:46:37;19.20;99.90
22071;DHT22;11200;51.488;6.668;2022-07-29T10:54:19;19.40;99.90
22071;DHT22;11200;51.488;6.668;2022-07-29T10:57:17;19.50;99.90
22071;DHT22;11200;51.488;6.668;2022-07-29T10:59:46;19.60;99.90
22071;DHT22;11200;51.488;6.668;2022-07-29T11:07:22;20.10;99.90
22071;DHT22;11200;51.488;6.668;2022-07-29T11:15:15;20.90;99.90
22071;DHT22;11200;51.488;6.668;2022-07-29T11:31:41;22.70;99.90
22071;DHT22;11200;51.488;6.668;2022-07-29T11:47:22;23.70;99.90
22071;DHT22;11200;51.488;6.668;2022-07-29T11:49:48;23.80;99.90
22071;DHT22;11200;51.488;6.668;2022-07-29T11:52:16;23.80;99.90
22071;DHT22;11200;51.488;6.668;2022-07-29T11:54:43;23.90;99.90
22071;DHT22;11200;51.488;6.668;2022-07-29T11:57:09;23.90;99.90
22071;DHT22;11200;51.488;6.668;2022-07-29T11:59:42;23.90;99.90
22071;DHT22;11200;51.488;6.668;2022-07-29T12:02:08;24.00;99.90
22071;DHT22;11200;51.488;6.668;2022-07-29T12:07:14;23.90;99.90
22071;DHT22;11200;51.488;6.668;2022-07-29T12:09:39;23.90;99.90
22071;DHT22;11200;51.488;6.668;2022-07-29T12:12:05;23.90;99.90
22071;DHT22;11200;51.488;6.668;2022-07-29T12:14:32;23.80;99.90
22071;DHT22;11200;51.488;6.668;2022-07-29T12:16:59;23.80;99.90
22071;DHT22;11200;51.488;6.668;2022-07-29T12:19:26;23.80;99.90
22071;DHT22;11200;51.488;6.668;2022-07-29T12:21:53;23.70;99.90
22071;DHT22;11200;51.488;6.668;2022-07-29T12:24:20;23.70;99.90
22071;DHT22;11200;51.488;6.668;2022-07-29T12:27:04;23.70;99.90
22071;DHT22;11200;51.488;6.668;2022-07-29T12:29:30;23.60;99.90
22071;DHT22;11200;51.488;6.668;2022-07-29T12:31:55;23.60;99.90
22071;DHT22;11200;51.488;6.668;2022-07-29T12:34:24;23.50;99.90
22071;DHT22;11200;51.488;6.668;2022-07-29T12:36:52;23.50;99.90
22071;DHT22;11200;51.488;6.668;2022-07-29T12:39:18;23.50;99.90
22071;DHT22;11200;51.488;6.668;2022-07-29T12:41:44;23.40;99.90
22071;DHT22;11200;51.488;6.668;2022-07-29T12:44:10;23.40;99.90
22071;DHT22;11200;51.488;6.668;2022-07-29T12:46:36;23.40;99.90
22071;DHT22;11200;51.488;6.668;2022-07-29T12:49:02;23.30;99.90
22071;DHT22;11200;51.488;6.668;2022-07-29T12:54:09;23.30;99.90
22071;DHT22;11200;51.488;6.668;2022-07-29T12:56:39;23.20;99.90
22071;DHT22;11200;51.488;6.668;2022-07-29T12:59:16;23.20;99.90
22071;DHT22;11200;51.488;6.668;2022-07-29T13:01:43;23.20;99.90
22071;DHT22;11200;51.488;6.668;2022-07-29T13:04:09;23.10;99.90
22071;DHT22;11200;51.488;6.668;2022-07-29T13:11:43;23.10;99.90
22071;DHT22;11200;51.488;6.668;2022-07-29T13:14:13;23.10;99.90
22071;DHT22;11200;51.488;6.668;2022-07-29T13:17:13;23.10;99.90
22071;DHT22;11200;51.488;6.668;2022-07-29T13:22:06;23.00;99.90
22071;DHT22;11200;51.488;6.668;2022-07-29T13:24:32;23.00;99.90
22071;DHT22;11200;51.488;6.668;2022-07-29T13:26:58;23.00;99.90
22071;DHT22;11200;51.488;6.668;2022-07-29T13:29:23;23.00;99.90
22071;DHT22;11200;51.488;6.668;2022-07-29T13:31:49;22.90;99.90
22071;DHT22;11200;51.488;6.668;2022-07-29T13:34:15;22.90;99.90
22071;DHT22;11200;51.488;6.668;2022-07-29T13:36:41;22.90;99.90
22071;DHT22;11200;51.488;6.668;2022-07-29T13:39:07;22.90;99.90
22071;DHT22;11200;51.488;6.668;2022-07-29T13:41:32;22.90;99.90
22071;DHT22;11200;51.488;6.668;2022-07-29T13:43:58;22.90;99.90
22071;DHT22;11200;51.488;6.668;2022-07-29T13:46:23;22.90;99.90
22071;DHT22;11200;51.488;6.668;2022-07-29T13:48:49;22.90;99.90
22071;DHT22;11200;51.488;6.668;2022-07-29T13:51:15;22.90;99.90
22071;DHT22;11200;51.488;6.668;2022-07-29T13:53:41;22.90;99.90
22071;DHT22;11200;51.488;6.668;2022-07-29T13:56:06;22.90;99.90
22071;DHT22;11200;51.488;6.668;2022-07-29T13:58:33;22.90;99.90
22071;DHT22;11200;51.488;6.668;2022-07-29T14:00:59;22.90;99.90
22071;DHT22;11200;51.488;6.668;2022-07-29T14:03:25;23.00;99.90
22071;DHT22;11200;51.488;6.668;2022-07-29T14:05:51;23.00;99.90
22071;DHT22;11200;51.488;6.668;2022-07-29T14:08:16;23.00;99.90
22071;DHT22;11200;51.488;6.668;2022-07-29T14:10:42;23.10;99.90
22071;DHT22;11200;51.488;6.668;2022-07-29T14:13:08;23.10;99.90
22071;DHT22;11200;51.488;6.668;2022-07-29T14:15:33;23.10;99.90
22071;DHT22;11200;51.488;6.668;2022-07-29T14:17:59;23.20;99.90
22071;DHT22;11200;51.488;6.668;2022-07-29T14:20:25;23.20;99.90
22071;DHT22;11200;51.488;6.668;2022-07-29T14:22:50;23.20;99.90
22071;DHT22;11200;51.488;6.668;2022-07-29T14:25:16;23.30;99.90
22071;DHT22;11200;51.488;6.668;2022-07-29T14:27:43;23.30;99.90
22071;DHT22;11200;51.488;6.668;2022-07-29T14:30:09;23.40;99.90
22071;DHT22;11200;51.488;6.668;2022-07-29T14:32:35;23.50;99.90
22071;DHT22;11200;51.488;6.668;2022-07-29T14:35:00;23.50;99.90
22071;DHT22;11200;51.488;6.668;2022-07-29T14:37:26;23.60;99.90
22071;DHT22;11200;51.488;6.668;2022-07-29T14:39:52;23.70;99.90
22071;DHT22;11200;51.488;6.668;2022-07-29T14:42:17;23.70;99.90
22071;DHT22;11200;51.488;6.668;2022-07-29T14:44:43;23.70;99.90
22071;DHT22;11200;51.488;6.668;2022-07-29T14:47:09;23.80;99.90
22071;DHT22;11200;51.488;6.668;2022-07-29T14:49:35;23.80;99.90
22071;DHT22;11200;51.488;6.668;2022-07-29T14:52:00;23.90;99.90
22071;DHT22;11200;51.488;6.668;2022-07-29T14:54:26;24.00;99.90
22071;DHT22;11200;51.488;6.668;2022-07-29T14:56:51;24.00;99.90
22071;DHT22;11200;51.488;6.668;2022-07-29T14:59:20;24.10;99.90
22071;DHT22;11200;51.488;6.668;2022-07-29T15:01:46;24.10;99.90
22071;DHT22;11200;51.488;6.668;2022-07-29T15:04:11;24.20;99.90
22071;DHT22;11200;51.488;6.668;2022-07-29T15:06:37;24.20;99.90
22071;DHT22;11200;51.488;6.668;2022-07-29T15:09:03;24.30;99.90
22071;DHT22;11200;51.488;6.668;2022-07-29T15:11:28;24.30;99.90
22071;DHT22;11200;51.488;6.668;2022-07-29T15:13:54;24.30;99.90
22071;DHT22;11200;51.488;6.668;2022-07-29T15:16:20;24.40;99.90
22071;DHT22;11200;51.488;6.668;2022-07-29T15:18:45;24.40;99.90
22071;DHT22;11200;51.488;6.668;2022-07-29T15:21:11;24.40;99.90
22071;DHT22;11200;51.488;6.668;2022-07-29T15:23:36;24.50;99.90
22071;DHT22;11200;51.488;6.668;2022-07-29T15:26:03;24.50;99.90
22071;DHT22;11200;51.488;6.668;2022-07-29T15:28:29;24.60;99.90
22071;DHT22;11200;51.488;6.668;2022-07-29T15:30:55;24.50;99.90
22071;DHT22;11200;51.488;6.668;2022-07-29T15:33:20;24.60;99.90
22071;DHT22;11200;51.488;6.668;2022-07-29T15:35:46;24.60;99.90
22071;DHT22;11200;51.488;6.668;2022-07-29T15:38:12;24.60;99.90
22071;DHT22;11200;51.488;6.668;2022-07-29T15:40:38;24.60;99.90
22071;DHT22;11200;51.488;6.668;2022-07-29T15:43:06;24.60;99.90
22071;DHT22;11200;51.488;6.668;2022-07-29T15:45:42;24.60;99.90
22071;DHT22;11200;51.488;6.668;2022-07-29T15:48:31;24.60;99.90
22071;DHT22;11200;51.488;6.668;2022-07-29T15:50:58;24.60;99.90
22071;DHT22;11200;51.488;6.668;2022-07-29T15:53:24;24.60;99.90
22071;DHT22;11200;51.488;6.668;2022-07-29T15:55:50;24.60;99.90
22071;DHT22;11200;51.488;6.668;2022-07-29T15:58:16;24.60;99.90
22071;DHT22;11200;51.488;6.668;2022-07-29T16:00:41;25.10;99.90
22071;DHT22;11200;51.488;6.668;2022-07-29T16:03:07;24.60;99.90
22071;DHT22;11200;51.488;6.668;2022-07-29T16:05:33;24.50;99.90
22071;DHT22;11200;51.488;6.668;2022-07-29T16:07:58;24.50;99.90
22071;DHT22;11200;51.488;6.668;2022-07-29T16:13:51;24.20;99.90
22071;DHT22;11200;51.488;6.668;2022-07-29T16:20:13;24.50;99.90
22071;DHT22;11200;51.488;6.668;2022-07-29T16:23:07;24.90;99.90
22071;DHT22;11200;51.488;6.668;2022-07-29T16:25:37;24.40;99.90
22071;DHT22;11200;51.488;6.668;2022-07-29T16:28:04;24.40;99.90
22071;DHT22;11200;51.488;6.668;2022-07-29T16:30:29;24.40;99.90
22071;DHT22;11200;51.488;6.668;2022-07-29T16:32:55;24.30;99.90
22071;DHT22;11200;51.488;6.668;2022-07-29T16:35:20;24.30;99.90
22071;DHT22;11200;51.488;6.668;2022-07-29T16:37:46;24.30;99.90
22071;DHT22;11200;51.488;6.668;2022-07-29T16:40:12;24.30;99.90
22071;DHT22;11200;51.488;6.668;2022-07-29T16:42:46;24.30;99.90
22071;DHT22;11200;51.488;6.668;2022-07-29T16:45:31;24.50;99.90
22071;DHT22;11200;51.488;6.668;2022-07-29T16:47:56;24.20;99.90
22071;DHT22;11200;51.488;6.668;2022-07-29T16:50:22;24.20;99.90
22071;DHT22;11200;51.488;6.668;2022-07-29T16:52:50;24.20;99.90
22071;DHT22;11200;51.488;6.668;2022-07-29T16:55:15;24.20;99.90
22071;DHT22;11200;51.488;6.668;2022-07-29T16:57:41;24.20;99.90
22071;DHT22;11200;51.488;6.668;2022-07-29T17:00:08;24.20;99.90
22071;DHT22;11200;51.488;6.668;2022-07-29T17:02:34;24.20;99.90